sensor_id;sensor_type;location;lat;lon;timestamp;P1;durP1;ratioP1;P2;durP2;ratioP2
47251;SDS011;32991;51.374;11.586;2022-09-09T00:02:05;1.50;;;1.00;;
47251;SDS011;32991;51.374;11.586;2022-09-09T00:13:25;2.05;;;1.20;;
47251;SDS011;32991;51.374;11.586;2022-09-09T00:16:03;4.03;;;1.10;;
47251;SDS011;32991;51.374;11.586;2022-09-09T00:21:15;0.90;;;0.90;;
47251;SDS011;32991;51.374;11.586;2022-09-09T00:23:44;1.27;;;0.80;;
47251;SDS011;32991;51.374;11.586;2022-09-09T00:31:46;2.00;;;0.90;;
47251;SDS011;32991;51.374;11.586;2022-09-09T00:34:14;1.67;;;1.05;;
47251;SDS011;32991;51.374;11.586;2022-09-09T00:36:45;0.77;;;0.77;;
47251;SDS011;32991;51.374;11.586;2022-09-09T00:45:19;3.45;;;1.02;;
47251;SDS011;32991;51.374;11.586;2022-09-09T00:47:54;1.25;;;1.00;;
47251;SDS011;32991;51.374;11.586;2022-09-09T00:50:57;2.00;;;0.85;;
47251;SDS011;32991;51.374;11.586;2022-09-09T00:56:31;2.65;;;0.95;;
47251;SDS011;32991;51.374;11.586;2022-09-09T00:59:15;2.40;;;1.10;;
47251;SDS011;32991;51.374;11.586;2022-09-09T01:01:45;1.75;;;1.00;;
47251;SDS011;32991;51.374;11.586;2022-09-09T01:04:13;3.53;;;1.50;;
47251;SDS011;32991;51.374;11.586;2022-09-09T01:06:47;2.72;;;0.95;;
47251;SDS011;32991;51.374;11.586;2022-09-09T01:14:43;2.13;;;1.02;;
47251;SDS011;32991;51.374;11.586;2022-09-09T01:17:20;1.75;;;0.90;;
47251;SDS011;32991;51.374;11.586;2022-09-09T01:22:57;1.15;;;0.90;;
47251;SDS011;32991;51.374;11.586;2022-09-09T01:28:45;1.33;;;0.80;;
47251;SDS011;32991;51.374;11.586;2022-09-09T01:31:20;1.45;;;1.10;;
47251;SDS011;32991;51.374;11.586;2022-09-09T01:33:52;0.82;;;0.70;;
47251;SDS011;32991;51.374;11.586;2022-09-09T01:36:25;1.40;;;1.00;;
47251;SDS011;32991;51.374;11.586;2022-09-09T01:38:59;2.30;;;0.85;;
47251;SDS011;32991;51.374;11.586;2022-09-09T01:41:27;1.45;;;1.00;;
47251;SDS011;32991;51.374;11.586;2022-09-09T01:44:15;1.35;;;0.90;;
47251;SDS011;32991;51.374;11.586;2022-09-09T01:46:43;2.10;;;0.93;;
47251;SDS011;32991;51.374;11.586;2022-09-09T01:49:16;1.40;;;1.00;;
47251;SDS011;32991;51.374;11.586;2022-09-09T01:51:45;2.22;;;0.95;;
47251;SDS011;32991;51.374;11.586;2022-09-09T01:54:16;2.45;;;1.00;;
47251;SDS011;32991;51.374;11.586;2022-09-09T01:56:58;1.50;;;0.88;;
47251;SDS011;32991;51.374;11.586;2022-09-09T02:05:39;0.90;;;0.90;;
47251;SDS011;32991;51.374;11.586;2022-09-09T02:11:34;2.25;;;0.90;;
47251;SDS011;32991;51.374;11.586;2022-09-09T02:14:08;2.40;;;1.08;;
47251;SDS011;32991;51.374;11.586;2022-09-09T02:19:32;0.95;;;0.90;;
47251;SDS011;32991;51.374;11.586;2022-09-09T02:22:08;1.23;;;1.13;;
47251;SDS011;32991;51.374;11.586;2022-09-09T02:24:36;2.03;;;0.95;;
47251;SDS011;32991;51.374;11.586;2022-09-09T02:27:13;1.35;;;0.80;;
47251;SDS011;32991;51.374;11.586;2022-09-09T02:29:43;2.38;;;0.90;;
47251;SDS011;32991;51.374;11.586;2022-09-09T02:32:17;1.98;;;1.10;;
47251;SDS011;32991;51.374;11.586;2022-09-09T02:34:54;1.00;;;0.90;;
47251;SDS011;32991;51.374;11.586;2022-09-09T02:37:27;2.88;;;1.30;;
47251;SDS011;32991;51.374;11.586;2022-09-09T02:40:00;1.00;;;0.90;;
47251;SDS011;32991;51.374;11.586;2022-09-09T02:42:29;3.30;;;1.20;;
47251;SDS011;32991;51.374;11.586;2022-09-09T02:44:59;1.83;;;1.10;;
47251;SDS011;32991;51.374;11.586;2022-09-09T02:52:52;0.98;;;0.82;;
47251;SDS011;32991;51.374;11.586;2022-09-09T03:00:55;2.60;;;1.20;;
47251;SDS011;32991;51.374;11.586;2022-09-09T03:03:25;1.80;;;1.08;;
47251;SDS011;32991;51.374;11.586;2022-09-09T03:05:52;2.13;;;1.23;;
47251;SDS011;32991;51.374;11.586;2022-09-09T03:08:19;2.13;;;1.30;;
47251;SDS011;32991;51.374;11.586;2022-09-09T03:10:46;1.17;;;1.08;;
47251;SDS011;32991;51.374;11.586;2022-09-09T03:13:14;1.83;;;1.17;;
47251;SDS011;32991;51.374;11.586;2022-09-09T03:15:43;1.05;;;0.98;;
47251;SDS011;32991;51.374;11.586;2022-09-09T03:18:14;1.20;;;1.10;;
47251;SDS011;32991;51.374;11.586;2022-09-09T03:20:45;2.60;;;0.93;;
47251;SDS011;32991;51.374;11.586;2022-09-09T03:23:16;2.22;;;1.00;;
47251;SDS011;32991;51.374;11.586;2022-09-09T03:25:47;1.30;;;0.98;;
47251;SDS011;32991;51.374;11.586;2022-09-09T03:28:25;0.82;;;0.82;;
47251;SDS011;32991;51.374;11.586;2022-09-09T03:30:59;1.55;;;1.00;;
47251;SDS011;32991;51.374;11.586;2022-09-09T03:33:29;2.10;;;1.17;;
47251;SDS011;32991;51.374;11.586;2022-09-09T03:35:58;2.20;;;1.02;;
47251;SDS011;32991;51.374;11.586;2022-09-09T03:38:24;2.53;;;1.02;;
47251;SDS011;32991;51.374;11.586;2022-09-09T03:40:52;2.75;;;1.10;;
47251;SDS011;32991;51.374;11.586;2022-09-09T03:43:25;1.75;;;1.35;;
47251;SDS011;32991;51.374;11.586;2022-09-09T03:45:52;2.25;;;1.13;;
47251;SDS011;32991;51.374;11.586;2022-09-09T03:48:24;1.25;;;1.10;;
47251;SDS011;32991;51.374;11.586;2022-09-09T03:50:54;1.00;;;1.00;;
47251;SDS011;32991;51.374;11.586;2022-09-09T03:53:27;2.80;;;1.17;;
47251;SDS011;32991;51.374;11.586;2022-09-09T03:55:55;1.50;;;1.15;;
47251;SDS011;32991;51.374;11.586;2022-09-09T03:58:27;1.27;;;1.10;;
47251;SDS011;32991;51.374;11.586;2022-09-09T04:01:00;2.17;;;1.10;;
47251;SDS011;32991;51.374;11.586;2022-09-09T04:03:32;1.37;;;1.13;;
47251;SDS011;32991;51.374;11.586;2022-09-09T04:06:00;1.67;;;1.20;;
47251;SDS011;32991;51.374;11.586;2022-09-09T04:08:29;1.73;;;1.02;;
47251;SDS011;32991;51.374;11.586;2022-09-09T04:11:00;2.28;;;0.80;;
47251;SDS011;32991;51.374;11.586;2022-09-09T04:13:33;1.30;;;1.10;;
47251;SDS011;32991;51.374;11.586;2022-09-09T04:16:01;1.45;;;1.25;;
47251;SDS011;32991;51.374;11.586;2022-09-09T04:18:31;1.63;;;1.00;;
47251;SDS011;32991;51.374;11.586;2022-09-09T04:20:59;1.80;;;1.10;;
47251;SDS011;32991;51.374;11.586;2022-09-09T04:23:28;2.63;;;1.13;;
47251;SDS011;32991;51.374;11.586;2022-09-09T04:25:57;2.53;;;1.00;;
47251;SDS011;32991;51.374;11.586;2022-09-09T04:28:26;3.72;;;1.30;;
47251;SDS011;32991;51.374;11.586;2022-09-09T04:30:56;1.55;;;1.10;;
47251;SDS011;32991;51.374;11.586;2022-09-09T04:33:24;2.40;;;1.13;;
47251;SDS011;32991;51.374;11.586;2022-09-09T04:35:54;2.00;;;1.00;;
47251;SDS011;32991;51.374;11.586;2022-09-09T04:38:23;2.65;;;1.10;;
47251;SDS011;32991;51.374;11.586;2022-09-09T04:40:50;0.75;;;0.75;;
47251;SDS011;32991;51.374;11.586;2022-09-09T04:43:18;1.35;;;1.17;;
47251;SDS011;32991;51.374;11.586;2022-09-09T04:45:47;9.07;;;1.27;;
47251;SDS011;32991;51.374;11.586;2022-09-09T04:48:15;2.05;;;1.15;;
47251;SDS011;32991;51.374;11.586;2022-09-09T04:50:42;1.75;;;1.10;;
47251;SDS011;32991;51.374;11.586;2022-09-09T04:53:10;0.90;;;0.90;;
47251;SDS011;32991;51.374;11.586;2022-09-09T04:55:38;3.33;;;0.90;;
47251;SDS011;32991;51.374;11.586;2022-09-09T04:58:05;1.70;;;1.30;;
47251;SDS011;32991;51.374;11.586;2022-09-09T05:00:34;1.15;;;1.05;;
47251;SDS011;32991;51.374;11.586;2022-09-09T05:03:05;0.80;;;0.80;;
47251;SDS011;32991;51.374;11.586;2022-09-09T05:05:35;2.50;;;1.33;;
47251;SDS011;32991;51.374;11.586;2022-09-09T05:08:06;3.00;;;1.17;;
47251;SDS011;32991;51.374;11.586;2022-09-09T05:10:36;1.67;;;1.13;;
47251;SDS011;32991;51.374;11.586;2022-09-09T05:13:04;1.85;;;1.10;;
47251;SDS011;32991;51.374;11.586;2022-09-09T05:15:32;1.65;;;1.08;;
47251;SDS011;32991;51.374;11.586;2022-09-09T05:18:01;3.47;;;1.10;;
47251;SDS011;32991;51.374;11.586;2022-09-09T05:20:30;3.17;;;1.30;;
47251;SDS011;32991;51.374;11.586;2022-09-09T05:22:58;2.72;;;1.30;;
47251;SDS011;32991;51.374;11.586;2022-09-09T05:25:27;1.40;;;1.10;;
47251;SDS011;32991;51.374;11.586;2022-09-09T05:27:55;1.88;;;1.20;;
47251;SDS011;32991;51.374;11.586;2022-09-09T05:30:22;0.93;;;0.90;;
47251;SDS011;32991;51.374;11.586;2022-09-09T05:32:50;0.90;;;0.90;;
47251;SDS011;32991;51.374;11.586;2022-09-09T05:35:17;1.27;;;1.00;;
47251;SDS011;32991;51.374;11.586;2022-09-09T05:37:45;1.15;;;1.08;;
47251;SDS011;32991;51.374;11.586;2022-09-09T05:40:12;1.88;;;1.10;;
47251;SDS011;32991;51.374;11.586;2022-09-09T05:42:39;1.85;;;1.15;;
47251;SDS011;32991;51.374;11.586;2022-09-09T05:45:07;1.83;;;1.15;;
47251;SDS011;32991;51.374;11.586;2022-09-09T05:47:36;2.03;;;1.20;;
47251;SDS011;32991;51.374;11.586;2022-09-09T05:50:06;2.33;;;0.93;;
47251;SDS011;32991;51.374;11.586;2022-09-09T05:52:33;2.47;;;1.00;;
47251;SDS011;32991;51.374;11.586;2022-09-09T05:55:00;1.70;;;1.05;;
47251;SDS011;32991;51.374;11.586;2022-09-09T05:57:28;2.78;;;1.10;;
47251;SDS011;32991;51.374;11.586;2022-09-09T05:59:54;3.33;;;1.05;;
47251;SDS011;32991;51.374;11.586;2022-09-09T06:02:21;1.20;;;1.00;;
47251;SDS011;32991;51.374;11.586;2022-09-09T06:04:48;3.90;;;0.90;;
47251;SDS011;32991;51.374;11.586;2022-09-09T06:07:16;2.90;;;1.10;;
47251;SDS011;32991;51.374;11.586;2022-09-09T06:09:42;2.00;;;1.20;;
47251;SDS011;32991;51.374;11.586;2022-09-09T06:12:10;1.02;;;0.73;;
47251;SDS011;32991;51.374;11.586;2022-09-09T06:14:37;2.80;;;0.90;;
47251;SDS011;32991;51.374;11.586;2022-09-09T06:17:09;0.77;;;0.77;;
47251;SDS011;32991;51.374;11.586;2022-09-09T06:19:36;1.25;;;0.98;;
47251;SDS011;32991;51.374;11.586;2022-09-09T06:22:03;2.03;;;0.82;;
47251;SDS011;32991;51.374;11.586;2022-09-09T06:24:34;2.05;;;1.15;;
47251;SDS011;32991;51.374;11.586;2022-09-09T06:27:02;1.05;;;0.90;;
47251;SDS011;32991;51.374;11.586;2022-09-09T06:29:32;1.90;;;1.10;;
47251;SDS011;32991;51.374;11.586;2022-09-09T06:32:01;0.85;;;0.85;;
47251;SDS011;32991;51.374;11.586;2022-09-09T06:34:29;1.15;;;0.73;;
47251;SDS011;32991;51.374;11.586;2022-09-09T06:36:57;2.45;;;1.48;;
47251;SDS011;32991;51.374;11.586;2022-09-09T06:39:28;4.20;;;1.70;;
47251;SDS011;32991;51.374;11.586;2022-09-09T06:41:55;1.35;;;1.00;;
47251;SDS011;32991;51.374;11.586;2022-09-09T06:44:46;1.02;;;0.93;;
47251;SDS011;32991;51.374;11.586;2022-09-09T06:47:23;2.80;;;0.90;;
47251;SDS011;32991;51.374;11.586;2022-09-09T06:49:51;1.00;;;0.80;;
47251;SDS011;32991;51.374;11.586;2022-09-09T06:52:18;1.27;;;0.75;;
47251;SDS011;32991;51.374;11.586;2022-09-09T06:54:46;1.20;;;0.82;;
47251;SDS011;32991;51.374;11.586;2022-09-09T06:57:14;1.05;;;0.77;;
47251;SDS011;32991;51.374;11.586;2022-09-09T07:00:01;2.45;;;1.02;;
47251;SDS011;32991;51.374;11.586;2022-09-09T07:02:29;2.53;;;0.70;;
47251;SDS011;32991;51.374;11.586;2022-09-09T07:04:59;1.13;;;1.00;;
47251;SDS011;32991;51.374;11.586;2022-09-09T07:07:26;1.35;;;0.82;;
47251;SDS011;32991;51.374;11.586;2022-09-09T07:09:54;1.52;;;0.65;;
47251;SDS011;32991;51.374;11.586;2022-09-09T07:12:21;2.40;;;0.95;;
47251;SDS011;32991;51.374;11.586;2022-09-09T07:14:58;0.65;;;0.65;;
47251;SDS011;32991;51.374;11.586;2022-09-09T07:17:24;2.58;;;0.93;;
47251;SDS011;32991;51.374;11.586;2022-09-09T07:19:52;0.90;;;0.88;;
47251;SDS011;32991;51.374;11.586;2022-09-09T07:22:19;1.48;;;0.75;;
47251;SDS011;32991;51.374;11.586;2022-09-09T07:24:46;1.90;;;0.80;;
47251;SDS011;32991;51.374;11.586;2022-09-09T07:27:14;1.65;;;0.70;;
47251;SDS011;32991;51.374;11.586;2022-09-09T07:29:41;2.58;;;0.68;;
47251;SDS011;32991;51.374;11.586;2022-09-09T07:32:09;1.13;;;0.82;;
47251;SDS011;32991;51.374;11.586;2022-09-09T07:34:37;1.52;;;0.77;;
47251;SDS011;32991;51.374;11.586;2022-09-09T07:37:04;0.82;;;0.57;;
47251;SDS011;32991;51.374;11.586;2022-09-09T07:39:32;2.33;;;1.05;;
47251;SDS011;32991;51.374;11.586;2022-09-09T07:41:59;1.63;;;0.80;;
47251;SDS011;32991;51.374;11.586;2022-09-09T07:44:26;1.48;;;0.82;;
47251;SDS011;32991;51.374;11.586;2022-09-09T07:47:02;0.68;;;0.60;;
47251;SDS011;32991;51.374;11.586;2022-09-09T07:49:35;1.15;;;0.52;;
47251;SDS011;32991;51.374;11.586;2022-09-09T07:52:03;1.10;;;0.50;;
47251;SDS011;32991;51.374;11.586;2022-09-09T07:54:31;2.58;;;0.80;;
47251;SDS011;32991;51.374;11.586;2022-09-09T07:57:01;0.93;;;0.60;;
47251;SDS011;32991;51.374;11.586;2022-09-09T07:59:33;1.92;;;0.60;;
47251;SDS011;32991;51.374;11.586;2022-09-09T08:02:01;2.55;;;0.52;;
47251;SDS011;32991;51.374;11.586;2022-09-09T08:04:31;0.50;;;0.40;;
47251;SDS011;32991;51.374;11.586;2022-09-09T08:06:58;2.30;;;0.50;;
47251;SDS011;32991;51.374;11.586;2022-09-09T08:09:29;0.60;;;0.60;;
47251;SDS011;32991;51.374;11.586;2022-09-09T08:12:16;1.08;;;0.45;;
47251;SDS011;32991;51.374;11.586;2022-09-09T08:14:46;1.67;;;0.50;;
47251;SDS011;32991;51.374;11.586;2022-09-09T08:17:13;0.75;;;0.45;;
47251;SDS011;32991;51.374;11.586;2022-09-09T08:19:41;0.52;;;0.40;;
47251;SDS011;32991;51.374;11.586;2022-09-09T08:22:13;1.95;;;0.50;;
47251;SDS011;32991;51.374;11.586;2022-09-09T08:24:40;4.45;;;0.40;;
47251;SDS011;32991;51.374;11.586;2022-09-09T08:27:07;0.65;;;0.52;;
47251;SDS011;32991;51.374;11.586;2022-09-09T08:29:37;1.10;;;0.50;;
47251;SDS011;32991;51.374;11.586;2022-09-09T08:32:04;0.65;;;0.50;;
47251;SDS011;32991;51.374;11.586;2022-09-09T08:34:32;1.35;;;0.85;;
47251;SDS011;32991;51.374;11.586;2022-09-09T08:37:04;4.18;;;0.63;;
47251;SDS011;32991;51.374;11.586;2022-09-09T08:39:36;1.67;;;0.80;;
47251;SDS011;32991;51.374;11.586;2022-09-09T08:52:57;1.10;;;0.50;;
47251;SDS011;32991;51.374;11.586;2022-09-09T08:55:41;1.00;;;0.60;;
47251;SDS011;32991;51.374;11.586;2022-09-09T08:58:30;1.55;;;0.40;;
47251;SDS011;32991;51.374;11.586;2022-09-09T09:03:44;1.60;;;0.73;;
47251;SDS011;32991;51.374;11.586;2022-09-09T09:09:00;0.85;;;0.40;;
47251;SDS011;32991;51.374;11.586;2022-09-09T09:11:35;2.38;;;0.52;;
47251;SDS011;32991;51.374;11.586;2022-09-09T09:14:09;3.33;;;0.47;;
47251;SDS011;32991;51.374;11.586;2022-09-09T09:16:56;0.57;;;0.50;;
47251;SDS011;32991;51.374;11.586;2022-09-09T09:19:28;0.65;;;0.45;;
47251;SDS011;32991;51.374;11.586;2022-09-09T09:22:02;0.80;;;0.70;;
47251;SDS011;32991;51.374;11.586;2022-09-09T09:24:42;1.27;;;0.57;;
47251;SDS011;32991;51.374;11.586;2022-09-09T09:27:32;2.33;;;0.47;;
47251;SDS011;32991;51.374;11.586;2022-09-09T09:30:15;0.55;;;0.55;;
47251;SDS011;32991;51.374;11.586;2022-09-09T09:33:00;2.95;;;0.70;;
47251;SDS011;32991;51.374;11.586;2022-09-09T09:35:32;1.10;;;0.63;;
47251;SDS011;32991;51.374;11.586;2022-09-09T09:38:19;3.42;;;0.70;;
47251;SDS011;32991;51.374;11.586;2022-09-09T09:41:09;1.65;;;0.75;;
47251;SDS011;32991;51.374;11.586;2022-09-09T09:43:37;1.95;;;0.50;;
47251;SDS011;32991;51.374;11.586;2022-09-09T09:46:22;1.50;;;0.60;;
47251;SDS011;32991;51.374;11.586;2022-09-09T09:49:03;2.55;;;0.90;;
47251;SDS011;32991;51.374;11.586;2022-09-09T09:51:33;1.35;;;0.60;;
47251;SDS011;32991;51.374;11.586;2022-09-09T09:56:41;1.38;;;0.60;;
47251;SDS011;32991;51.374;11.586;2022-09-09T09:59:19;1.83;;;0.60;;
47251;SDS011;32991;51.374;11.586;2022-09-09T10:04:41;1.15;;;0.57;;
47251;SDS011;32991;51.374;11.586;2022-09-09T10:07:12;0.30;;;0.30;;
47251;SDS011;32991;51.374;11.586;2022-09-09T10:09:43;1.48;;;0.50;;
47251;SDS011;32991;51.374;11.586;2022-09-09T10:16:17;0.60;;;0.60;;
47251;SDS011;32991;51.374;11.586;2022-09-09T10:18:46;2.50;;;0.50;;
47251;SDS011;32991;51.374;11.586;2022-09-09T10:21:40;1.60;;;0.75;;
47251;SDS011;32991;51.374;11.586;2022-09-09T10:30:04;3.90;;;0.88;;
47251;SDS011;32991;51.374;11.586;2022-09-09T10:40:48;1.20;;;0.70;;
47251;SDS011;32991;51.374;11.586;2022-09-09T10:46:23;2.17;;;0.80;;
47251;SDS011;32991;51.374;11.586;2022-09-09T10:57:23;0.45;;;0.40;;
47251;SDS011;32991;51.374;11.586;2022-09-09T11:00:06;1.13;;;0.68;;
47251;SDS011;32991;51.374;11.586;2022-09-09T11:02:41;1.27;;;0.57;;
47251;SDS011;32991;51.374;11.586;2022-09-09T11:05:21;2.17;;;0.63;;
47251;SDS011;32991;51.374;11.586;2022-09-09T11:08:21;4.57;;;0.60;;
47251;SDS011;32991;51.374;11.586;2022-09-09T11:10:53;1.00;;;0.55;;
47251;SDS011;32991;51.374;11.586;2022-09-09T11:13:42;1.23;;;0.60;;
47251;SDS011;32991;51.374;11.586;2022-09-09T11:18:47;0.57;;;0.57;;
47251;SDS011;32991;51.374;11.586;2022-09-09T11:21:20;0.68;;;0.63;;
47251;SDS011;32991;51.374;11.586;2022-09-09T11:23:54;1.33;;;0.73;;
47251;SDS011;32991;51.374;11.586;2022-09-09T11:26:28;1.23;;;0.60;;
47251;SDS011;32991;51.374;11.586;2022-09-09T11:31:51;2.22;;;0.70;;
47251;SDS011;32991;51.374;11.586;2022-09-09T11:34:46;0.90;;;0.55;;
47251;SDS011;32991;51.374;11.586;2022-09-09T11:37:40;3.28;;;0.65;;
47251;SDS011;32991;51.374;11.586;2022-09-09T11:40:22;2.88;;;0.50;;
47251;SDS011;32991;51.374;11.586;2022-09-09T11:45:51;2.50;;;0.65;;
47251;SDS011;32991;51.374;11.586;2022-09-09T11:48:34;0.50;;;0.47;;
47251;SDS011;32991;51.374;11.586;2022-09-09T11:53:51;1.63;;;0.35;;
47251;SDS011;32991;51.374;11.586;2022-09-09T11:56:24;0.45;;;0.40;;
47251;SDS011;32991;51.374;11.586;2022-09-09T11:59:05;1.33;;;0.45;;
47251;SDS011;32991;51.374;11.586;2022-09-09T12:01:45;0.75;;;0.55;;
47251;SDS011;32991;51.374;11.586;2022-09-09T12:06:59;1.10;;;0.73;;
47251;SDS011;32991;51.374;11.586;2022-09-09T12:09:33;1.30;;;0.80;;
47251;SDS011;32991;51.374;11.586;2022-09-09T12:19:59;1.65;;;0.82;;
47251;SDS011;32991;51.374;11.586;2022-09-09T12:22:59;0.88;;;0.60;;
47251;SDS011;32991;51.374;11.586;2022-09-09T12:28:15;3.13;;;0.70;;
47251;SDS011;32991;51.374;11.586;2022-09-09T12:30:56;1.48;;;0.70;;
47251;SDS011;32991;51.374;11.586;2022-09-09T12:33:35;0.95;;;0.50;;
47251;SDS011;32991;51.374;11.586;2022-09-09T12:36:05;2.17;;;0.57;;
47251;SDS011;32991;51.374;11.586;2022-09-09T12:38:42;2.20;;;0.65;;
47251;SDS011;32991;51.374;11.586;2022-09-09T12:41:18;0.98;;;0.45;;
47251;SDS011;32991;51.374;11.586;2022-09-09T12:43:47;1.98;;;0.70;;
47251;SDS011;32991;51.374;11.586;2022-09-09T12:46:17;1.85;;;0.60;;
47251;SDS011;32991;51.374;11.586;2022-09-09T12:48:54;1.92;;;0.80;;
47251;SDS011;32991;51.374;11.586;2022-09-09T12:51:31;0.73;;;0.40;;
47251;SDS011;32991;51.374;11.586;2022-09-09T12:53:59;1.33;;;0.80;;
47251;SDS011;32991;51.374;11.586;2022-09-09T12:56:27;1.65;;;0.63;;
47251;SDS011;32991;51.374;11.586;2022-09-09T12:58:57;3.10;;;0.93;;
47251;SDS011;32991;51.374;11.586;2022-09-09T13:01:25;0.95;;;0.38;;
47251;SDS011;32991;51.374;11.586;2022-09-09T13:03:59;2.00;;;0.57;;
47251;SDS011;32991;51.374;11.586;2022-09-09T13:06:27;1.00;;;0.63;;
47251;SDS011;32991;51.374;11.586;2022-09-09T13:08:56;1.30;;;0.60;;
47251;SDS011;32991;51.374;11.586;2022-09-09T13:11:27;2.30;;;0.57;;
47251;SDS011;32991;51.374;11.586;2022-09-09T13:13:57;1.38;;;0.45;;
47251;SDS011;32991;51.374;11.586;2022-09-09T13:16:26;2.50;;;0.60;;
47251;SDS011;32991;51.374;11.586;2022-09-09T13:19:07;0.63;;;0.40;;
47251;SDS011;32991;51.374;11.586;2022-09-09T13:21:36;0.93;;;0.30;;
47251;SDS011;32991;51.374;11.586;2022-09-09T13:24:57;2.30;;;0.50;;
47251;SDS011;32991;51.374;11.586;2022-09-09T13:26:59;0.60;;;0.50;;
47251;SDS011;32991;51.374;11.586;2022-09-09T13:29:28;1.42;;;0.43;;
47251;SDS011;32991;51.374;11.586;2022-09-09T13:32:04;0.63;;;0.30;;
47251;SDS011;32991;51.374;11.586;2022-09-09T13:34:33;2.58;;;0.65;;
47251;SDS011;32991;51.374;11.586;2022-09-09T13:37:22;1.58;;;0.40;;
47251;SDS011;32991;51.374;11.586;2022-09-09T13:39:53;2.80;;;0.50;;
47251;SDS011;32991;51.374;11.586;2022-09-09T13:42:21;1.90;;;0.57;;
47251;SDS011;32991;51.374;11.586;2022-09-09T13:44:55;1.75;;;0.38;;
47251;SDS011;32991;51.374;11.586;2022-09-09T13:50:18;0.43;;;0.30;;
47251;SDS011;32991;51.374;11.586;2022-09-09T13:52:49;0.88;;;0.40;;
47251;SDS011;32991;51.374;11.586;2022-09-09T13:55:19;0.35;;;0.30;;
47251;SDS011;32991;51.374;11.586;2022-09-09T14:00:22;1.35;;;0.40;;
47251;SDS011;32991;51.374;11.586;2022-09-09T14:02:50;1.35;;;0.20;;
47251;SDS011;32991;51.374;11.586;2022-09-09T14:05:17;0.73;;;0.25;;
47251;SDS011;32991;51.374;11.586;2022-09-09T14:07:45;1.08;;;0.55;;
47251;SDS011;32991;51.374;11.586;2022-09-09T14:10:17;0.35;;;0.20;;
47251;SDS011;32991;51.374;11.586;2022-09-09T14:12:44;0.40;;;0.20;;
47251;SDS011;32991;51.374;11.586;2022-09-09T14:15:12;0.28;;;0.20;;
47251;SDS011;32991;51.374;11.586;2022-09-09T14:17:40;0.57;;;0.38;;
47251;SDS011;32991;51.374;11.586;2022-09-09T14:20:07;0.10;;;0.10;;
47251;SDS011;32991;51.374;11.586;2022-09-09T14:22:35;0.22;;;0.15;;
47251;SDS011;32991;51.374;11.586;2022-09-09T14:25:03;0.10;;;0.10;;
47251;SDS011;32991;51.374;11.586;2022-09-09T14:27:30;0.90;;;0.20;;
47251;SDS011;32991;51.374;11.586;2022-09-09T14:29:57;0.50;;;0.30;;
47251;SDS011;32991;51.374;11.586;2022-09-09T14:32:23;0.40;;;0.30;;
47251;SDS011;32991;51.374;11.586;2022-09-09T14:34:50;0.47;;;0.13;;
47251;SDS011;32991;51.374;11.586;2022-09-09T14:37:17;0.57;;;0.28;;
47251;SDS011;32991;51.374;11.586;2022-09-09T14:39:44;1.02;;;0.30;;
47251;SDS011;32991;51.374;11.586;2022-09-09T14:42:13;0.50;;;0.30;;
47251;SDS011;32991;51.374;11.586;2022-09-09T14:44:41;0.43;;;0.20;;
47251;SDS011;32991;51.374;11.586;2022-09-09T14:47:07;0.45;;;0.30;;
47251;SDS011;32991;51.374;11.586;2022-09-09T14:49:35;0.32;;;0.30;;
47251;SDS011;32991;51.374;11.586;2022-09-09T14:52:02;0.98;;;0.43;;
47251;SDS011;32991;51.374;11.586;2022-09-09T14:54:30;0.43;;;0.30;;
47251;SDS011;32991;51.374;11.586;2022-09-09T14:56:58;0.40;;;0.20;;
47251;SDS011;32991;51.374;11.586;2022-09-09T14:59:25;0.75;;;0.30;;
47251;SDS011;32991;51.374;11.586;2022-09-09T15:01:52;0.30;;;0.20;;
47251;SDS011;32991;51.374;11.586;2022-09-09T15:04:19;0.50;;;0.20;;
47251;SDS011;32991;51.374;11.586;2022-09-09T15:06:46;0.65;;;0.20;;
47251;SDS011;32991;51.374;11.586;2022-09-09T15:09:15;1.13;;;0.30;;
47251;SDS011;32991;51.374;11.586;2022-09-09T15:11:42;0.88;;;0.50;;
47251;SDS011;32991;51.374;11.586;2022-09-09T15:14:09;0.98;;;0.20;;
47251;SDS011;32991;51.374;11.586;2022-09-09T15:16:38;0.95;;;0.30;;
47251;SDS011;32991;51.374;11.586;2022-09-09T15:19:05;0.38;;;0.15;;
47251;SDS011;32991;51.374;11.586;2022-09-09T15:21:33;0.30;;;0.30;;
47251;SDS011;32991;51.374;11.586;2022-09-09T15:24:02;3.45;;;0.47;;
47251;SDS011;32991;51.374;11.586;2022-09-09T15:26:29;2.65;;;0.28;;
47251;SDS011;32991;51.374;11.586;2022-09-09T15:28:56;0.30;;;0.30;;
47251;SDS011;32991;51.374;11.586;2022-09-09T15:31:29;1.17;;;0.30;;
47251;SDS011;32991;51.374;11.586;2022-09-09T15:33:57;3.00;;;0.32;;
47251;SDS011;32991;51.374;11.586;2022-09-09T15:36:30;1.30;;;0.40;;
47251;SDS011;32991;51.374;11.586;2022-09-09T15:38:58;0.88;;;0.47;;
47251;SDS011;32991;51.374;11.586;2022-09-09T15:41:26;1.30;;;0.10;;
47251;SDS011;32991;51.374;11.586;2022-09-09T15:43:54;1.45;;;0.57;;
47251;SDS011;32991;51.374;11.586;2022-09-09T15:46:31;0.70;;;0.20;;
47251;SDS011;32991;51.374;11.586;2022-09-09T15:49:07;0.73;;;0.47;;
47251;SDS011;32991;51.374;11.586;2022-09-09T15:51:45;0.20;;;0.20;;
47251;SDS011;32991;51.374;11.586;2022-09-09T15:54:17;0.88;;;0.20;;
47251;SDS011;32991;51.374;11.586;2022-09-09T15:56:45;1.17;;;0.28;;
47251;SDS011;32991;51.374;11.586;2022-09-09T15:59:14;0.70;;;0.50;;
47251;SDS011;32991;51.374;11.586;2022-09-09T16:01:42;0.30;;;0.30;;
47251;SDS011;32991;51.374;11.586;2022-09-09T16:04:10;0.20;;;0.20;;
47251;SDS011;32991;51.374;11.586;2022-09-09T16:06:37;2.72;;;0.40;;
47251;SDS011;32991;51.374;11.586;2022-09-09T16:09:04;0.25;;;0.22;;
47251;SDS011;32991;51.374;11.586;2022-09-09T16:11:33;0.40;;;0.40;;
47251;SDS011;32991;51.374;11.586;2022-09-09T16:14:03;3.00;;;0.60;;
47251;SDS011;32991;51.374;11.586;2022-09-09T16:16:31;2.05;;;0.55;;
47251;SDS011;32991;51.374;11.586;2022-09-09T16:18:59;1.10;;;0.40;;
47251;SDS011;32991;51.374;11.586;2022-09-09T16:21:34;0.40;;;0.40;;
47251;SDS011;32991;51.374;11.586;2022-09-09T16:24:10;0.70;;;0.32;;
47251;SDS011;32991;51.374;11.586;2022-09-09T16:26:39;1.80;;;0.45;;
47251;SDS011;32991;51.374;11.586;2022-09-09T16:29:13;1.60;;;0.45;;
47251;SDS011;32991;51.374;11.586;2022-09-09T16:31:41;1.48;;;0.40;;
47251;SDS011;32991;51.374;11.586;2022-09-09T16:34:08;1.40;;;0.40;;
47251;SDS011;32991;51.374;11.586;2022-09-09T16:36:36;1.10;;;0.50;;
47251;SDS011;32991;51.374;11.586;2022-09-09T16:39:06;1.38;;;0.40;;
47251;SDS011;32991;51.374;11.586;2022-09-09T16:41:38;0.73;;;0.50;;
47251;SDS011;32991;51.374;11.586;2022-09-09T16:44:07;1.42;;;0.65;;
47251;SDS011;32991;51.374;11.586;2022-09-09T16:46:36;1.80;;;0.50;;
47251;SDS011;32991;51.374;11.586;2022-09-09T16:49:06;0.57;;;0.35;;
47251;SDS011;32991;51.374;11.586;2022-09-09T16:51:39;0.45;;;0.22;;
47251;SDS011;32991;51.374;11.586;2022-09-09T16:54:10;0.85;;;0.20;;
47251;SDS011;32991;51.374;11.586;2022-09-09T16:56:40;0.80;;;0.30;;
47251;SDS011;32991;51.374;11.586;2022-09-09T16:59:10;0.85;;;0.30;;
47251;SDS011;32991;51.374;11.586;2022-09-09T17:01:40;1.35;;;0.55;;
47251;SDS011;32991;51.374;11.586;2022-09-09T17:04:10;1.17;;;0.30;;
47251;SDS011;32991;51.374;11.586;2022-09-09T17:06:47;1.13;;;0.60;;
47251;SDS011;32991;51.374;11.586;2022-09-09T17:09:15;2.63;;;0.63;;
47251;SDS011;32991;51.374;11.586;2022-09-09T17:11:43;0.85;;;0.50;;
47251;SDS011;32991;51.374;11.586;2022-09-09T17:14:13;0.70;;;0.40;;
47251;SDS011;32991;51.374;11.586;2022-09-09T17:16:41;0.50;;;0.40;;
47251;SDS011;32991;51.374;11.586;2022-09-09T17:19:09;1.23;;;0.40;;
47251;SDS011;32991;51.374;11.586;2022-09-09T17:21:35;1.65;;;0.70;;